Time;durP1;ratioP1;P1;durP2;ratioP2;P2;SDS_P1;SDS_P2;PMS_P1;PMS_P2;Temp;Humidity;BMP_temperature;BMP_pressure;BME280_temperature;BME280_humidity;BME280_pressure;Samples;Min_cycle;Max_cycle;Signal;HPM_P1;HPM_P2
2021/11/05 00:12:54;;;;;;;1.00;0.90;;;;;;;9.72;90.45;98959.28;708739;1187;114274;-75
2021/11/05 00:28:34;;;;;;;1.50;0.87;;;;;;;9.56;94.00;98972.36;708718;1186;113259;-74
2021/11/05 00:43:37;;;;;;;1.80;1.50;;;;;;;9.42;95.51;99020.91;708779;1188;113176;-76
2021/11/05 00:58:39;;;;;;;1.20;1.10;;;;;;;9.20;98.93;98994.34;708611;1209;114167;-74
2021/11/05 01:13:41;;;;;;;4.10;1.20;;;;;;;9.25;100.00;99043.57;708739;1185;113922;-75
2021/11/05 01:28:44;;;;;;;4.07;1.40;;;;;;;9.19;100.00;98999.73;708689;1212;114599;-74
2021/11/05 01:43:47;;;;;;;1.90;1.35;;;;;;;8.87;100.00;99007.27;708772;1209;114180;-75
2021/11/05 01:58:49;;;;;;;1.30;1.10;;;;;;;8.90;100.00;99003.53;708746;1212;113690;-75
2021/11/05 02:13:54;;;;;;;1.30;1.00;;;;;;;8.75;100.00;98995.42;708627;1212;113412;-74
2021/11/05 02:28:57;;;;;;;1.73;1.30;;;;;;;8.89;100.00;99012.34;708670;1209;113402;-75
2021/11/05 02:43:59;;;;;;;2.60;1.20;;;;;;;8.79;100.00;99010.66;708741;1199;113477;-74
2021/11/05 02:59:01;;;;;;;1.50;1.10;;;;;;;8.74;100.00;99046.91;708471;1191;114661;-74
2021/11/05 03:14:05;;;;;;;2.40;1.30;;;;;;;8.45;100.00;99068.91;708813;1188;113928;-74
2021/11/05 03:29:07;;;;;;;1.67;1.53;;;;;;;8.55;100.00;99086.30;708934;1212;113335;-74
2021/11/05 03:44:10;;;;;;;1.23;1.13;;;;;;;8.65;100.00;99108.77;708799;1209;114077;-73
2021/11/05 03:59:12;;;;;;;1.50;1.35;;;;;;;8.55;100.00;99133.35;708821;1185;113944;-74
2021/11/05 04:14:14;;;;;;;1.60;1.05;;;;;;;8.71;100.00;99196.26;708803;1209;113446;-74
2021/11/05 04:29:17;;;;;;;1.55;1.30;;;;;;;8.74;100.00;99189.91;708674;1184;114357;-75
2021/11/05 04:44:20;;;;;;;1.70;1.30;;;;;;;8.77;100.00;99221.79;708875;1209;113399;-76
2021/11/05 04:59:22;;;;;;;2.30;1.20;;;;;;;9.04;100.00;99237.55;708566;1189;113922;-73
2021/11/05 05:14:24;;;;;;;4.10;2.55;;;;;;;9.20;100.00;99244.70;708822;1209;113970;-74
2021/11/05 05:29:29;;;;;;;3.23;1.70;;;;;;;9.19;100.00;99303.27;709051;1186;113410;-74
2021/11/05 05:44:31;;;;;;;2.80;1.75;;;;;;;9.16;100.00;99326.14;708929;1209;114311;-75
2021/11/05 05:59:33;;;;;;;1.60;1.43;;;;;;;9.23;100.00;99349.09;709099;1209;113658;-74
2021/11/05 06:14:35;;;;;;;5.10;2.90;;;;;;;9.16;100.00;99386.32;708909;1187;113641;-74
2021/11/05 06:29:37;;;;;;;5.83;2.03;;;;;;;9.11;100.00;99422.56;708921;1188;113358;-75
2021/11/05 06:44:40;;;;;;;3.40;1.80;;;;;;;9.10;100.00;99494.17;708841;1209;113838;-72
2021/11/05 06:59:42;;;;;;;2.10;1.50;;;;;;;9.04;100.00;99479.08;708990;1187;113841;-71
2021/11/05 07:14:44;;;;;;;3.83;2.43;;;;;;;8.96;100.00;99507.73;708816;1208;113432;-77
2021/11/05 07:29:47;;;;;;;6.87;3.97;;;;;;;8.79;100.00;99543.33;709302;1187;113722;-76
2021/11/05 07:44:50;;;;;;;3.75;2.00;;;;;;;8.56;100.00;99571.58;709175;1209;114231;-79
2021/11/05 07:59:54;;;;;;;40.20;14.50;;;;;;;8.52;100.00;99596.34;710675;1209;113401;-75
2021/11/05 08:14:57;;;;;;;6.57;3.63;;;;;;;8.47;100.00;99639.42;709219;1209;114326;-75
2021/11/05 08:29:59;;;;;;;5.57;3.50;;;;;;;8.34;100.00;99662.36;709305;1184;114166;-75
2021/11/05 08:45:03;;;;;;;15.00;7.20;;;;;;;8.35;100.00;99711.02;709218;1209;114243;-75
2021/11/05 09:00:13;;;;;;;17.80;11.80;;;;;;;8.43;100.00;99754.80;709403;1209;115056;-75
2021/11/05 09:15:19;;;;;;;14.43;7.15;;;;;;;8.64;100.00;99762.57;709077;1188;114018;-74
2021/11/05 09:30:24;;;;;;;8.60;4.60;;;;;;;8.90;100.00;99791.64;709356;1209;113914;-75
2021/11/05 09:45:31;;;;;;;6.33;3.23;;;;;;;9.22;100.00;99826.38;709861;1187;114088;-74
2021/11/05 10:00:33;;;;;;;4.80;3.40;;;;;;;9.49;100.00;99847.44;709099;1209;114111;-75
2021/11/05 10:15:46;;;;;;;8.10;4.50;;;;;;;9.87;100.00;99878.14;709007;1187;113703;-74
2021/11/05 10:30:54;;;;;;;8.00;4.95;;;;;;;9.72;100.00;99928.34;709160;1208;114656;-72
2021/11/05 10:45:57;;;;;;;7.87;4.63;;;;;;;9.63;100.00;99961.44;709228;1212;113720;-74
2021/11/05 11:01:02;;;;;;;19.03;8.77;;;;;;;9.62;100.00;99979.88;709255;1209;113733;-73
2021/11/05 11:16:09;;;;;;;18.90;10.20;;;;;;;9.38;100.00;100006.45;708967;1209;114284;-73
2021/11/05 11:31:12;;;;;;;15.35;7.05;;;;;;;9.49;100.00;100040.39;709296;1212;115646;-73
2021/11/05 11:46:15;;;;;;;6.47;4.47;;;;;;;9.54;100.00;100058.30;708956;1212;113997;-71
2021/11/05 12:01:26;;;;;;;13.95;8.15;;;;;;;9.44;100.00;100085.29;709112;1186;113902;-72
2021/11/05 12:16:30;;;;;;;24.60;10.60;;;;;;;9.39;100.00;100126.75;709104;1208;113916;-72
2021/11/05 12:31:35;;;;;;;67.60;28.50;;;;;;;9.39;100.00;100134.60;709028;1209;115544;-70
2021/11/05 12:46:47;;;;;;;69.20;30.40;;;;;;;9.49;100.00;100152.98;709094;1212;114923;-72
2021/11/05 13:02:01;;;;;;;30.05;12.65;;;;;;;9.39;100.00;100173.88;708889;1209;115751;-73
2021/11/05 13:17:24;;;;;;;15.70;9.20;;;;;;;9.40;100.00;100193.86;709686;1186;114183;-73
2021/11/05 13:32:27;;;;;;;16.00;8.73;;;;;;;9.40;100.00;100213.99;709325;1201;114965;-72
2021/11/05 13:47:29;;;;;;;15.05;9.35;;;;;;;9.39;100.00;100230.66;709206;1209;115256;-73
2021/11/05 14:02:32;;;;;;;;;;;;;;;9.38;100.00;100245.52;709423;1195;114452;-73
2021/11/05 14:17:42;;;;;;;;;;;;;;;9.26;100.00;100270.11;709147;1209;100933;-71
2021/11/05 14:32:48;;;;;;;12.50;6.40;;;;;;;8.96;100.00;100301.30;709214;1212;100895;-73
2021/11/05 14:47:52;;;;;;;15.23;8.30;;;;;;;8.85;100.00;100317.02;709487;1184;113983;-73
2021/11/05 15:02:55;;;;;;;33.90;18.20;;;;;;;8.82;100.00;100331.17;709189;1209;114906;-72
2021/11/05 15:17:57;;;;;;;56.00;21.90;;;;;;;8.82;100.00;100349.48;709309;1193;114475;-73
2021/11/05 15:33:01;;;;;;;72.70;28.10;;;;;;;8.89;100.00;100380.39;708883;1212;115240;-71
2021/11/05 15:48:04;;;;;;;98.20;26.70;;;;;;;8.98;100.00;100395.36;709046;1186;114280;-74
2021/11/05 16:03:08;;;;;;;49.00;18.80;;;;;;;9.06;100.00;100413.89;709035;1209;115664;-71
2021/11/05 16:18:11;;;;;;;31.23;12.83;;;;;;;9.10;100.00;100428.39;708931;1208;114405;-72
2021/11/05 16:33:14;;;;;;;25.90;12.97;;;;;;;9.16;100.00;100461.12;709084;1212;115091;-73
2021/11/05 16:48:18;;;;;;;36.80;18.47;;;;;;;9.22;100.00;100476.31;709105;1186;114304;-73
2021/11/05 17:03:26;;;;;;;21.55;9.03;;;;;;;9.15;100.00;100496.09;709399;1212;114640;-72
2021/11/05 17:18:31;;;;;;;36.40;18.95;;;;;;;9.22;100.00;100509.53;709919;1191;114252;-73
2021/11/05 17:33:54;;;;;;;21.90;12.70;;;;;;;9.22;100.00;100518.20;709311;1195;114061;-74
2021/11/05 17:48:58;;;;;;;39.85;20.10;;;;;;;9.11;100.00;100553.07;709534;1187;114248;-74
2021/11/05 18:04:00;;;;;;;21.40;12.10;;;;;;;9.03;100.00;100562.45;709508;1199;114218;-70
2021/11/05 18:19:03;;;;;;;105.00;28.85;;;;;;;9.01;100.00;100570.43;709407;1209;115771;-71
2021/11/05 18:34:06;;;;;;;73.20;23.53;;;;;;;8.92;100.00;100576.37;709055;1212;114548;-71
2021/11/05 18:49:11;;;;;;;54.47;22.90;;;;;;;8.87;100.00;100587.20;709422;1209;114306;-72
2021/11/05 19:04:15;;;;;;;20.75;10.80;;;;;;;8.90;100.00;100601.84;709572;1185;114591;-72
2021/11/05 19:19:17;;;;;;;19.15;7.60;;;;;;;8.89;100.00;100608.83;709507;1184;114204;-71
2021/11/05 19:34:22;;;;;;;12.45;6.10;;;;;;;8.87;100.00;100620.36;709386;1186;114045;-73
2021/11/05 19:49:27;;;;;;;12.37;6.83;;;;;;;8.86;100.00;100637.86;709207;1186;113639;-73
2021/11/05 20:04:30;;;;;;;17.80;6.25;;;;;;;8.85;100.00;100625.72;709337;1212;114532;-73
2021/11/05 20:19:34;;;;;;;18.80;7.70;;;;;;;8.82;100.00;100652.94;709226;1209;115414;-71
2021/11/05 20:34:37;;;;;;;16.00;6.00;;;;;;;8.77;100.00;100670.76;709336;1209;115471;-73
2021/11/05 20:49:41;;;;;;;16.95;6.45;;;;;;;8.67;100.00;100669.80;708647;1209;114013;-73
2021/11/05 21:04:44;;;;;;;12.30;5.83;;;;;;;8.48;100.00;100681.58;708915;1209;115415;-72
2021/11/05 21:19:48;;;;;;;17.15;7.30;;;;;;;8.28;100.00;100695.25;708662;1209;115496;-73
2021/11/05 21:34:51;;;;;;;13.10;7.30;;;;;;;8.22;100.00;100698.30;709114;1209;115550;-73
2021/11/05 21:49:53;;;;;;;11.90;6.60;;;;;;;8.38;100.00;100709.33;708805;1184;114183;-72
2021/11/05 22:04:56;;;;;;;15.65;8.15;;;;;;;8.51;100.00;100698.00;708972;1208;114340;-72
2021/11/05 22:20:00;;;;;;;11.20;6.50;;;;;;;8.58;100.00;100707.91;708905;1209;114887;-72
2021/11/05 22:35:04;;;;;;;11.00;6.40;;;;;;;8.62;100.00;100709.35;709028;1187;114044;-74
2021/11/05 22:50:11;;;;;;;9.30;5.25;;;;;;;8.58;100.00;100735.86;708673;1186;114179;-74
2021/11/05 23:05:13;;;;;;;12.00;5.90;;;;;;;8.48;100.00;100723.41;708946;1197;113750;-73
2021/11/05 23:20:18;;;;;;;13.97;6.67;;;;;;;8.48;100.00;100728.64;708991;1184;114036;-73
2021/11/05 23:35:20;;;;;;;11.60;5.97;;;;;;;8.55;100.00;100730.83;708774;1209;115177;-73
2021/11/05 23:50:22;;;;;;;11.65;7.40;;;;;;;8.69;100.00;100748.97;708565;1190;115225;-73
